createdAt,value
2023-08-14T00:00:33.834Z,100361.50
2023-08-14T00:03:02.282Z,100360.47
2023-08-14T00:05:30.144Z,100361.94
2023-08-14T00:07:58.118Z,100361.41
2023-08-14T00:10:28.055Z,100355.13
2023-08-14T00:12:55.876Z,100350.94
2023-08-14T00:15:24.193Z,100358.56
2023-08-14T00:17:52.691Z,100360.19
2023-08-14T00:20:20.497Z,100359.50
2023-08-14T00:22:48.445Z,100355.06
2023-08-14T00:25:16.445Z,100355.25
2023-08-14T00:27:45.740Z,100349.44
2023-08-14T00:30:14.519Z,100352.00
2023-08-14T00:32:42.325Z,100362.09
2023-08-14T00:35:10.443Z,100357.63
2023-08-14T00:37:43.407Z,100361.06
2023-08-14T00:40:12.830Z,100351.25
2023-08-14T00:42:43.538Z,100347.53
2023-08-14T00:45:14.545Z,100349.63
2023-08-14T00:47:44.875Z,100350.03
2023-08-14T00:50:14.248Z,100353.19
2023-08-14T00:52:45.743Z,100360.16
2023-08-14T00:55:17.798Z,100364.84
2023-08-14T00:57:46.599Z,100343.34
2023-08-14T01:00:16.260Z,100351.78
2023-08-14T01:03:16.413Z,100344.69
2023-08-14T01:05:44.470Z,100344.94
2023-08-14T01:08:12.586Z,100358.06
2023-08-14T01:10:52.087Z,100344.22
2023-08-14T01:13:27.971Z,100353.00
2023-08-14T01:16:01.657Z,100349.25
2023-08-14T01:18:32.945Z,100348.28
2023-08-14T01:21:13.047Z,100348.53
2023-08-14T01:23:51.399Z,100345.50
2023-08-14T01:26:20.677Z,100338.66
2023-08-14T01:28:49.804Z,100327.06
2023-08-14T01:31:18.207Z,100329.84
2023-08-14T01:33:46.017Z,100331.78
2023-08-14T01:36:22.006Z,100336.38
2023-08-14T01:39:01.722Z,100327.03
2023-08-14T01:41:36.978Z,100331.78
2023-08-14T01:44:07.856Z,100323.16
2023-08-14T01:46:37.079Z,100329.47
2023-08-14T01:49:06.037Z,100330.16
2023-08-14T01:51:34.577Z,100322.69
2023-08-14T01:54:02.440Z,100324.56
2023-08-14T01:56:30.174Z,100323.00
2023-08-14T01:58:59.840Z,100322.81
2023-08-14T02:01:27.617Z,100317.28
2023-08-14T02:03:56.373Z,100324.00
2023-08-14T02:06:28.518Z,100338.75
2023-08-14T02:08:56.266Z,100365.19
2023-08-14T02:11:24.365Z,100377.66
2023-08-14T02:13:52.120Z,100342.22
2023-08-14T02:16:21.593Z,100328.00
2023-08-14T02:18:49.385Z,100343.13
2023-08-14T02:21:17.291Z,100338.47
2023-08-14T02:23:45.051Z,100330.34
2023-08-14T02:26:12.729Z,100311.91
2023-08-14T02:28:40.464Z,100309.38
2023-08-14T02:31:08.369Z,100299.06
2023-08-14T02:33:37.595Z,100298.38
2023-08-14T02:36:05.733Z,100299.72
2023-08-14T02:38:33.541Z,100293.13
2023-08-14T02:41:03.899Z,100283.41
2023-08-14T02:43:32.462Z,100284.72
2023-08-14T02:46:00.302Z,100286.63
2023-08-14T02:48:29.033Z,100287.59
2023-08-14T02:50:58.349Z,100288.22
2023-08-14T02:53:26.223Z,100282.13
2023-08-14T02:55:54.541Z,100279.84
2023-08-14T02:58:22.384Z,100274.69
2023-08-14T03:00:51.307Z,100273.25
2023-08-14T03:03:19.102Z,100265.97
2023-08-14T03:05:47.193Z,100268.69
2023-08-14T03:08:16.467Z,100269.06
2023-08-14T03:10:44.373Z,100267.50
2023-08-14T03:13:12.217Z,100265.13
2023-08-14T03:15:39.986Z,100270.28
2023-08-14T03:18:07.863Z,100273.50
2023-08-14T03:20:35.694Z,100267.13
2023-08-14T03:23:03.481Z,100257.88
2023-08-14T03:25:32.668Z,100246.28
2023-08-14T03:28:00.521Z,100248.31
2023-08-14T03:30:29.886Z,100251.44
2023-08-14T03:32:57.751Z,100249.44
2023-08-14T03:35:26.964Z,100253.38
2023-08-14T03:37:54.845Z,100257.94
2023-08-14T03:40:24.133Z,100252.81
2023-08-14T03:42:53.648Z,100251.00
2023-08-14T03:45:22.376Z,100248.47
2023-08-14T03:47:50.291Z,100250.75
2023-08-14T03:50:18.165Z,100247.53
2023-08-14T03:52:46.236Z,100246.94
2023-08-14T03:55:14.565Z,100252.56
2023-08-14T03:57:42.389Z,100253.53
2023-08-14T04:00:14.775Z,100264.91
2023-08-14T04:02:43.784Z,100267.31
2023-08-14T04:05:11.974Z,100266.47
2023-08-14T04:07:39.689Z,100266.38
2023-08-14T04:10:08.772Z,100266.59
2023-08-14T04:12:36.715Z,100263.25
2023-08-14T04:15:16.036Z,100263.00
2023-08-14T04:17:43.928Z,100262.16
2023-08-14T04:20:12.249Z,100261.22
2023-08-14T04:22:40.080Z,100263.13
2023-08-14T04:25:08.846Z,100261.69
2023-08-14T04:27:37.611Z,100263.97
2023-08-14T04:30:06.875Z,100259.91
2023-08-14T04:32:36.514Z,100260.47
2023-08-14T04:35:04.573Z,100268.41
2023-08-14T04:37:32.495Z,100278.34
2023-08-14T04:40:00.289Z,100288.78
2023-08-14T04:42:28.293Z,100287.94
2023-08-14T04:44:56.600Z,100298.13
2023-08-14T04:47:24.443Z,100293.44
2023-08-14T04:49:53.685Z,100292.84
2023-08-14T04:52:21.884Z,100292.72
2023-08-14T04:54:51.428Z,100293.19
2023-08-14T04:57:19.259Z,100297.88
2023-08-14T04:59:47.029Z,100297.63
2023-08-14T05:02:14.966Z,100296.81
2023-08-14T05:04:42.990Z,100305.78
2023-08-14T05:07:12.177Z,100301.94
2023-08-14T05:09:40.585Z,100292.47
2023-08-14T05:12:09.104Z,100283.34
2023-08-14T05:14:37.071Z,100289.13
2023-08-14T05:17:05.098Z,100273.06
2023-08-14T05:19:33.205Z,100266.84
2023-08-14T05:22:00.983Z,100259.00
2023-08-14T05:24:30.031Z,100263.06
2023-08-14T05:26:57.793Z,100267.13
2023-08-14T05:29:25.829Z,100278.03
2023-08-14T05:31:54.302Z,100270.66
2023-08-14T05:34:22.111Z,100267.13
2023-08-14T05:36:50.120Z,100261.47
2023-08-14T05:39:20.077Z,100262.69
2023-08-14T05:41:50.665Z,100260.63
2023-08-14T05:44:18.925Z,100248.16
2023-08-14T05:46:49.529Z,100244.16
2023-08-14T05:49:18.439Z,100241.13
2023-08-14T05:51:46.690Z,100259.28
2023-08-14T05:54:14.899Z,100252.72
2023-08-14T05:56:43.019Z,100258.97
2023-08-14T05:59:12.562Z,100268.13
2023-08-14T06:01:40.892Z,100259.81
2023-08-14T06:04:30.893Z,100248.72
2023-08-14T06:06:58.649Z,100257.97
2023-08-14T06:09:27.117Z,100260.00
2023-08-14T06:11:56.387Z,100255.13
2023-08-14T06:14:25.930Z,100252.13
2023-08-14T06:16:55.322Z,100245.50
2023-08-14T06:19:23.699Z,100241.34
2023-08-14T06:21:52.021Z,100242.50
2023-08-14T06:24:19.723Z,100240.69
2023-08-14T06:26:48.023Z,100245.97
2023-08-14T06:29:16.300Z,100251.38
2023-08-14T06:31:45.941Z,100245.41
2023-08-14T06:34:14.009Z,100242.28
2023-08-14T06:36:43.404Z,100245.50
2023-08-14T06:39:11.355Z,100244.66
2023-08-14T06:41:39.924Z,100242.22
2023-08-14T06:44:10.265Z,100239.31
2023-08-14T06:46:38.074Z,100230.94
2023-08-14T06:49:07.639Z,100235.28
2023-08-14T06:51:35.354Z,100230.22
2023-08-14T06:54:03.129Z,100221.63
2023-08-14T06:56:31.365Z,100215.56
2023-08-14T06:58:59.394Z,100209.50
2023-08-14T07:01:27.394Z,100212.59
2023-08-14T07:03:55.338Z,100220.03
2023-08-14T07:06:25.277Z,100227.44
2023-08-14T07:08:53.311Z,100233.38
2023-08-14T07:11:21.216Z,100237.25
2023-08-14T07:13:49.145Z,100220.59
2023-08-14T07:16:17.115Z,100220.44
2023-08-14T07:18:45.424Z,100221.84
2023-08-14T07:21:13.438Z,100225.66
2023-08-14T07:23:42.538Z,100228.94
2023-08-14T07:26:13.520Z,100228.81
2023-08-14T07:28:42.281Z,100233.75
2023-08-14T07:31:10.958Z,100235.13
2023-08-14T07:33:38.987Z,100229.59
2023-08-14T07:36:06.766Z,100234.31
2023-08-14T07:38:34.742Z,100233.44
2023-08-14T07:41:04.086Z,100219.38
2023-08-14T07:43:32.178Z,100214.06
2023-08-14T07:46:00.084Z,100212.50
2023-08-14T07:48:28.160Z,100218.47
2023-08-14T07:50:56.497Z,100227.88
2023-08-14T07:53:24.342Z,100237.63
2023-08-14T07:55:52.335Z,100256.06
2023-08-14T07:58:21.361Z,100254.63
2023-08-14T08:00:49.784Z,100244.75
2023-08-14T08:03:17.643Z,100251.25
2023-08-14T08:05:45.518Z,100249.94
2023-08-14T08:08:13.297Z,100246.53
2023-08-14T08:10:41.208Z,100238.06
2023-08-14T08:13:09.722Z,100247.41
2023-08-14T08:15:38.901Z,100253.13
2023-08-14T08:18:06.768Z,100253.59
2023-08-14T08:20:34.599Z,100241.97
2023-08-14T08:23:02.825Z,100254.88
2023-08-14T08:25:30.504Z,100260.09
2023-08-14T08:27:58.310Z,100273.19
2023-08-14T08:30:26.038Z,100285.47
2023-08-14T08:33:03.186Z,100282.94
2023-08-14T08:35:31.322Z,100276.38
2023-08-14T08:37:59.056Z,100268.66
2023-08-14T08:40:27.342Z,100256.13
2023-08-14T08:42:55.651Z,100261.31
2023-08-14T08:45:25.091Z,100256.00
2023-08-14T08:47:57.381Z,100263.41
2023-08-14T08:50:26.643Z,100265.06
2023-08-14T08:52:55.651Z,100259.44
2023-08-14T08:55:23.587Z,100260.53
2023-08-14T08:57:53.038Z,100231.88
2023-08-14T09:00:25.626Z,100238.72
2023-08-14T09:02:56.419Z,100235.47
2023-08-14T09:05:25.079Z,100232.38
2023-08-14T09:07:52.930Z,100235.59
2023-08-14T09:10:20.913Z,100237.56
2023-08-14T09:12:48.682Z,100237.06
2023-08-14T09:15:17.121Z,100239.16
2023-08-14T09:17:45.481Z,100242.09
2023-08-14T09:20:24.386Z,100237.28
2023-08-14T09:22:58.822Z,100233.31
2023-08-14T09:25:26.933Z,100233.53
2023-08-14T09:27:56.245Z,100240.81
2023-08-14T09:30:27.151Z,100241.19
2023-08-14T09:32:55.959Z,100235.16
2023-08-14T09:35:25.280Z,100230.25
2023-08-14T09:37:53.701Z,100228.19
2023-08-14T09:40:21.577Z,100224.44
2023-08-14T09:42:51.513Z,100216.81
2023-08-14T09:45:24.539Z,100226.88
2023-08-14T09:47:53.361Z,100215.28
2023-08-14T09:50:26.842Z,100217.47
2023-08-14T09:52:58.350Z,100217.38
2023-08-14T09:55:27.764Z,100212.59
2023-08-14T09:57:55.670Z,100214.63
2023-08-14T10:00:23.695Z,100213.31
2023-08-14T10:02:53.680Z,100222.31
2023-08-14T10:05:22.715Z,100210.38
2023-08-14T10:07:51.499Z,100207.38
2023-08-14T10:10:21.983Z,100194.97
2023-08-14T10:12:54.371Z,100196.47
2023-08-14T10:15:27.613Z,100209.66
2023-08-14T10:18:00.073Z,100218.41
2023-08-14T10:20:32.917Z,100203.72
2023-08-14T10:23:02.766Z,100215.34
2023-08-14T10:25:32.400Z,100209.84
2023-08-14T10:28:00.665Z,100219.56
2023-08-14T10:30:29.858Z,100217.97
2023-08-14T10:32:58.288Z,100220.31
2023-08-14T10:35:26.839Z,100218.47
2023-08-14T10:38:08.894Z,100229.81
2023-08-14T10:40:53.945Z,100228.63
2023-08-14T10:43:27.989Z,100224.47
2023-08-14T10:45:55.976Z,100225.34
2023-08-14T10:48:24.594Z,100240.31
2023-08-14T10:51:00.970Z,100246.31
2023-08-14T10:53:30.820Z,100248.38
2023-08-14T10:56:00.842Z,100249.16
2023-08-14T10:58:48.876Z,100240.94
2023-08-14T11:01:19.152Z,100246.00
2023-08-14T11:04:01.358Z,100248.53
2023-08-14T11:06:30.875Z,100249.94
2023-08-14T11:09:05.362Z,100236.69
2023-08-14T11:11:34.487Z,100248.00
2023-08-14T11:14:02.542Z,100237.28
2023-08-14T11:16:31.200Z,100230.13
2023-08-14T11:18:59.559Z,100245.66
2023-08-14T11:21:31.537Z,100238.59
2023-08-14T11:24:01.047Z,100235.41
2023-08-14T11:26:31.416Z,100232.94
2023-08-14T11:29:00.972Z,100223.34
2023-08-14T11:31:34.455Z,100228.63
2023-08-14T11:34:07.104Z,100222.00
2023-08-14T11:36:35.330Z,100227.41
2023-08-14T11:39:03.991Z,100234.75
2023-08-14T11:41:35.200Z,100224.63
2023-08-14T11:44:04.804Z,100217.19
2023-08-14T11:46:32.939Z,100222.28
2023-08-14T11:49:01.016Z,100218.41
2023-08-14T11:51:30.854Z,100202.38
2023-08-14T11:54:00.428Z,100203.41
2023-08-14T11:56:28.693Z,100199.50
2023-08-14T11:59:07.221Z,100182.31
2023-08-14T12:01:39.999Z,100172.88
2023-08-14T12:04:08.340Z,100175.16
2023-08-14T12:06:37.009Z,100170.53
2023-08-14T12:09:08.773Z,100179.31
2023-08-14T12:11:38.014Z,100177.00
2023-08-14T12:14:07.179Z,100160.06
2023-08-14T12:16:41.206Z,100166.72
2023-08-14T12:19:10.747Z,100174.34
2023-08-14T12:21:38.633Z,100174.00
2023-08-14T12:24:07.707Z,100172.50
2023-08-14T12:26:41.858Z,100165.84
2023-08-14T12:29:10.193Z,100172.94
2023-08-14T12:31:38.269Z,100188.22
2023-08-14T12:34:08.006Z,100196.22
2023-08-14T12:36:36.647Z,100201.59
2023-08-14T12:39:04.769Z,100199.41
2023-08-14T12:41:32.854Z,100204.94
2023-08-14T12:44:00.831Z,100218.22
2023-08-14T12:46:28.662Z,100234.31
2023-08-14T12:48:57.104Z,100244.53
2023-08-14T12:51:26.255Z,100251.91
2023-08-14T12:53:54.021Z,100259.06
2023-08-14T12:58:56.393Z,100246.13
2023-08-14T13:01:24.789Z,100228.47
2023-08-14T13:03:53.675Z,100219.47
2023-08-14T13:06:23.002Z,100215.63
2023-08-14T13:08:52.140Z,100216.06
2023-08-14T13:11:20.294Z,100205.88
2023-08-14T13:13:48.098Z,100195.72
2023-08-14T13:16:16.676Z,100197.41
2023-08-14T13:18:45.261Z,100198.81
2023-08-14T13:21:13.398Z,100199.81
2023-08-14T13:23:41.876Z,100172.97
2023-08-14T13:26:24.589Z,100176.59
2023-08-14T13:28:53.205Z,100169.03
2023-08-14T13:31:21.049Z,100155.28
2023-08-14T13:33:48.981Z,100150.34
2023-08-14T13:36:17.078Z,100139.44
2023-08-14T13:38:45.018Z,100133.47
2023-08-14T13:41:14.481Z,100133.31
2023-08-14T13:43:42.522Z,100129.34
2023-08-14T13:46:10.506Z,100132.03
2023-08-14T13:48:38.641Z,100125.72
2023-08-14T13:51:06.488Z,100123.00
2023-08-14T13:53:34.347Z,100136.81
2023-08-14T13:56:02.200Z,100127.31
2023-08-14T13:58:31.259Z,100117.81
2023-08-14T14:01:02.769Z,100118.47
2023-08-14T14:03:31.125Z,100117.66
2023-08-14T14:05:58.879Z,100123.50
2023-08-14T14:08:26.892Z,100122.19
2023-08-14T14:10:54.890Z,100131.50
2023-08-14T14:13:22.731Z,100133.81
2023-08-14T14:15:51.829Z,100137.84
2023-08-14T14:18:20.018Z,100131.97
2023-08-14T14:20:50.030Z,100122.19
2023-08-14T14:23:17.837Z,100128.44
2023-08-14T14:25:46.168Z,100136.38
2023-08-14T14:28:15.578Z,100137.22
2023-08-14T14:30:43.445Z,100127.25
2023-08-14T14:33:13.086Z,100129.13
2023-08-14T14:35:40.766Z,100126.25
2023-08-14T14:38:08.458Z,100119.59
2023-08-14T14:40:36.253Z,100105.41
2023-08-14T14:43:04.019Z,100102.09
2023-08-14T14:45:34.791Z,100099.78
2023-08-14T14:48:03.392Z,100093.50
2023-08-14T14:50:32.686Z,100106.72
2023-08-14T14:53:00.633Z,100114.03
2023-08-14T14:55:29.337Z,100105.72
2023-08-14T14:57:57.301Z,100108.72
2023-08-14T15:00:26.005Z,100103.72
2023-08-14T15:02:54.209Z,100108.34
2023-08-14T15:05:28.552Z,100112.41
2023-08-14T15:07:58.962Z,100125.47
2023-08-14T15:10:26.758Z,100120.16
2023-08-14T15:12:55.159Z,100124.97
2023-08-14T15:15:23.943Z,100125.16
2023-08-14T15:17:52.036Z,100126.00
2023-08-14T15:20:20.083Z,100125.53
2023-08-14T15:22:48.084Z,100122.69
2023-08-14T15:25:17.332Z,100122.84
2023-08-14T15:27:45.791Z,100126.34
2023-08-14T15:30:13.946Z,100116.88
2023-08-14T15:32:41.796Z,100120.53
2023-08-14T15:35:09.764Z,100113.88
2023-08-14T15:37:37.946Z,100111.53
2023-08-14T15:40:07.342Z,100113.19
2023-08-14T15:42:36.441Z,100109.03
2023-08-14T15:45:08.430Z,100104.38
2023-08-14T15:47:37.333Z,100099.50
2023-08-14T15:50:06.037Z,100104.44
2023-08-14T15:52:34.103Z,100107.78
2023-08-14T15:55:02.378Z,100098.25
2023-08-14T15:57:30.490Z,100092.03
2023-08-14T16:00:01.348Z,100093.03
2023-08-14T16:02:29.768Z,100088.00
2023-08-14T16:04:58.077Z,100096.41
2023-08-14T16:07:26.206Z,100092.56
2023-08-14T16:09:54.190Z,100087.88
2023-08-14T16:12:22.221Z,100092.25
2023-08-14T16:14:50.039Z,100096.25
2023-08-14T16:17:19.311Z,100096.44
2023-08-14T16:19:47.250Z,100095.25
2023-08-14T16:22:15.244Z,100097.81
2023-08-14T16:24:42.996Z,100096.78
2023-08-14T16:27:11.971Z,100095.09
2023-08-14T16:29:39.919Z,100093.94
2023-08-14T16:32:07.816Z,100099.78
2023-08-14T16:34:36.878Z,100098.16
2023-08-14T16:37:05.445Z,100089.59
2023-08-14T16:39:33.417Z,100093.63
2023-08-14T16:42:01.433Z,100094.31
2023-08-14T16:44:29.343Z,100091.13
2023-08-14T16:46:57.124Z,100089.94
2023-08-14T16:49:24.920Z,100099.13
2023-08-14T16:51:54.051Z,100089.50
2023-08-14T16:54:21.796Z,100087.19
2023-08-14T16:56:49.579Z,100093.81
2023-08-14T16:59:17.351Z,100087.78
2023-08-14T17:01:45.368Z,100092.69
2023-08-14T17:04:13.196Z,100088.53
2023-08-14T17:06:41.476Z,100092.56
2023-08-14T17:09:14.346Z,100092.91
2023-08-14T17:11:42.846Z,100093.38
2023-08-14T17:14:10.788Z,100085.03
2023-08-14T17:16:38.667Z,100079.84
2023-08-14T17:19:06.569Z,100082.72
2023-08-14T17:21:35.045Z,100083.84
2023-08-14T17:24:03.185Z,100077.53
2023-08-14T17:26:32.613Z,100081.19
2023-08-14T17:29:00.450Z,100088.38
2023-08-14T17:31:29.073Z,100085.84
2023-08-14T17:33:57.293Z,100087.19
2023-08-14T17:36:25.174Z,100080.53
2023-08-14T17:38:52.898Z,100080.53
2023-08-14T17:41:20.823Z,100080.19
2023-08-14T17:43:49.890Z,100085.34
2023-08-14T17:46:17.621Z,100081.31
2023-08-14T17:48:45.397Z,100086.50
2023-08-14T17:51:13.304Z,100084.59
2023-08-14T17:53:40.965Z,100088.31
2023-08-14T17:56:08.683Z,100090.09
2023-08-14T17:58:36.719Z,100087.56
2023-08-14T18:01:05.824Z,100095.03
2023-08-14T18:03:33.633Z,100098.03
2023-08-14T18:06:01.977Z,100093.69
2023-08-14T18:08:29.731Z,100097.66
2023-08-14T18:10:57.498Z,100107.66
2023-08-14T18:13:25.444Z,100112.09
2023-08-14T18:15:53.332Z,100108.47
2023-08-14T18:18:22.709Z,100113.59
2023-08-14T18:20:52.448Z,100117.56
2023-08-14T18:23:21.254Z,100111.75
2023-08-14T18:25:53.218Z,100117.38
2023-08-14T18:28:21.205Z,100118.69
2023-08-14T18:30:49.638Z,100126.31
2023-08-14T18:33:18.084Z,100127.75
2023-08-14T18:35:47.723Z,100128.41
2023-08-14T18:38:15.864Z,100123.16
2023-08-14T18:40:46.560Z,100127.81
2023-08-14T18:43:15.089Z,100123.47
2023-08-14T18:45:43.374Z,100129.13
2023-08-14T18:48:11.444Z,100129.59
2023-08-14T18:50:39.753Z,100131.88
2023-08-14T18:53:09.502Z,100145.78
2023-08-14T18:55:40.079Z,100139.00
2023-08-14T18:58:08.242Z,100136.34
2023-08-14T19:00:37.013Z,100149.91
2023-08-14T19:03:05.631Z,100142.63
2023-08-14T19:05:34.145Z,100144.13
2023-08-14T19:08:02.128Z,100142.31
2023-08-14T19:10:31.424Z,100145.56
2023-08-14T19:12:59.168Z,100139.91
2023-08-14T19:15:28.112Z,100136.22
2023-08-14T19:17:56.278Z,100140.81
2023-08-14T19:20:24.337Z,100147.56
2023-08-14T19:22:52.123Z,100142.94
2023-08-14T19:25:19.937Z,100140.13
2023-08-14T19:27:49.093Z,100144.63
2023-08-14T19:30:17.382Z,100143.09
2023-08-14T19:32:45.605Z,100144.38
2023-08-14T19:35:13.728Z,100138.88
2023-08-14T19:37:41.657Z,100139.69
2023-08-14T19:40:11.958Z,100139.84
2023-08-14T19:42:40.700Z,100141.97
2023-08-14T19:45:11.544Z,100143.25
2023-08-14T19:47:43.895Z,100149.72
2023-08-14T19:50:12.020Z,100156.28
2023-08-14T19:52:40.181Z,100160.59
2023-08-14T19:55:08.857Z,100154.63
2023-08-14T19:57:36.699Z,100154.63
2023-08-14T20:00:05.722Z,100150.16
2023-08-14T20:02:35.364Z,100148.47
2023-08-14T20:05:05.685Z,100157.72
2023-08-14T20:07:33.634Z,100156.88
2023-08-14T20:10:04.027Z,100149.53
2023-08-14T20:12:34.789Z,100157.50
2023-08-14T20:15:04.458Z,100159.47
2023-08-14T20:17:35.670Z,100159.06
2023-08-14T20:20:08.032Z,100161.88
2023-08-14T20:22:37.551Z,100154.06
2023-08-14T20:25:07.849Z,100161.19
2023-08-14T20:27:37.698Z,100168.63
2023-08-14T20:30:08.379Z,100157.16
2023-08-14T20:32:38.257Z,100158.09
2023-08-14T20:35:11.301Z,100158.75
2023-08-14T20:37:40.733Z,100164.06
2023-08-14T20:40:12.074Z,100175.66
2023-08-14T20:42:41.251Z,100179.84
2023-08-14T20:45:11.188Z,100186.44
2023-08-14T20:47:41.235Z,100179.59
2023-08-14T20:50:12.569Z,100178.31
2023-08-14T20:52:43.053Z,100182.25
2023-08-14T20:55:11.989Z,100182.69
2023-08-14T20:57:41.362Z,100184.66
2023-08-14T21:00:11.794Z,100178.50
2023-08-14T21:02:43.024Z,100180.03
2023-08-14T21:05:14.868Z,100179.22
2023-08-14T21:07:44.422Z,100184.97
2023-08-14T21:10:15.341Z,100181.59
2023-08-14T21:12:45.051Z,100174.50
2023-08-14T21:15:13.028Z,100178.97
2023-08-14T21:17:40.969Z,100178.97
2023-08-14T21:20:09.869Z,100176.31
2023-08-14T21:22:39.975Z,100174.78
2023-08-14T21:25:08.899Z,100184.69
2023-08-14T21:27:36.697Z,100179.69
2023-08-14T21:30:04.978Z,100177.75
2023-08-14T21:32:33.485Z,100187.97
2023-08-14T21:35:01.388Z,100189.72
2023-08-14T21:37:29.218Z,100193.94
2023-08-14T21:39:58.887Z,100192.13
2023-08-14T21:42:26.947Z,100190.59
2023-08-14T21:44:54.848Z,100187.81
2023-08-14T21:47:22.973Z,100191.97
2023-08-14T21:49:50.961Z,100186.53
2023-08-14T21:52:18.786Z,100188.06
2023-08-14T21:54:46.578Z,100188.75
2023-08-14T21:57:15.751Z,100184.44
2023-08-14T21:59:43.621Z,100193.53
2023-08-14T22:02:12.270Z,100191.72
2023-08-14T22:04:41.415Z,100190.63
2023-08-14T22:07:10.315Z,100189.94
2023-08-14T22:09:39.755Z,100195.94
2023-08-14T22:14:38.441Z,100187.94
2023-08-14T22:19:34.339Z,100199.00
2023-08-14T22:22:02.176Z,100196.06
2023-08-14T22:24:40.836Z,100205.41
2023-08-14T22:27:09.516Z,100200.34
2023-08-14T22:29:38.761Z,100204.53
2023-08-14T22:32:06.509Z,100203.84
2023-08-14T22:34:34.700Z,100202.34
2023-08-14T22:37:02.799Z,100208.22
2023-08-14T22:39:32.036Z,100210.16
2023-08-14T22:42:00.224Z,100213.53
2023-08-14T22:44:27.979Z,100215.78
2023-08-14T22:46:57.136Z,100210.75
2023-08-14T22:49:25.218Z,100206.81
2023-08-14T22:51:53.002Z,100203.63
2023-08-14T22:54:20.712Z,100200.41
2023-08-14T22:56:48.416Z,100206.97
2023-08-14T22:59:16.149Z,100204.31
2023-08-14T23:01:43.985Z,100207.50
2023-08-14T23:04:13.091Z,100214.38
2023-08-14T23:06:41.033Z,100214.34
2023-08-14T23:09:09.203Z,100207.53
2023-08-14T23:11:38.272Z,100205.56
2023-08-14T23:14:06.254Z,100206.72
2023-08-14T23:16:33.976Z,100204.88
2023-08-14T23:19:02.090Z,100212.97
2023-08-14T23:21:31.168Z,100212.09
2023-08-14T23:23:58.941Z,100205.41
2023-08-14T23:26:26.847Z,100201.53
2023-08-14T23:28:54.650Z,100207.38
2023-08-14T23:31:22.648Z,100201.41
2023-08-14T23:33:50.548Z,100199.31
2023-08-14T23:36:18.334Z,100202.66
2023-08-14T23:38:47.645Z,100195.97
2023-08-14T23:41:15.341Z,100184.00
2023-08-14T23:43:43.110Z,100185.78
2023-08-14T23:46:10.868Z,100179.09
2023-08-14T23:48:38.535Z,100186.34
2023-08-14T23:51:06.525Z,100180.91
2023-08-14T23:53:34.209Z,100169.47
2023-08-14T23:56:04.009Z,100175.47
2023-08-14T23:58:31.762Z,100170.44
